sensor_id;sensor_type;location;lat;lon;timestamp;pressure;altitude;pressure_sealevel;temperature;humidity
50710;BME280;37033;49.994;21.992;2023-01-31T00:03:07;98330.27;;;-0.74;93.50
50710;BME280;37033;49.994;21.992;2023-01-31T00:05:57;98332.38;;;-0.75;93.57
50710;BME280;37033;49.994;21.992;2023-01-31T00:08:48;98333.23;;;-0.76;93.46
50710;BME280;37033;49.994;21.992;2023-01-31T00:11:38;98330.39;;;-0.76;93.59
50710;BME280;37033;49.994;21.992;2023-01-31T00:14:28;98330.84;;;-0.77;93.73
50710;BME280;37033;49.994;21.992;2023-01-31T00:17:19;98334.21;;;-0.77;93.69
50710;BME280;37033;49.994;21.992;2023-01-31T00:20:10;98346.06;;;-0.78;93.75
50710;BME280;37033;49.994;21.992;2023-01-31T00:23:00;98348.94;;;-0.77;93.67
50710;BME280;37033;49.994;21.992;2023-01-31T00:25:51;98346.16;;;-0.75;93.69
50710;BME280;37033;49.994;21.992;2023-01-31T00:28:40;98351.92;;;-0.72;93.84
50710;BME280;37033;49.994;21.992;2023-01-31T00:31:32;98357.02;;;-0.67;94.19
50710;BME280;37033;49.994;21.992;2023-01-31T00:34:23;98352.88;;;-0.61;94.25
50710;BME280;37033;49.994;21.992;2023-01-31T00:37:13;98360.80;;;-0.55;94.43
50710;BME280;37033;49.994;21.992;2023-01-31T00:40:03;98365.36;;;-0.49;94.52
50710;BME280;37033;49.994;21.992;2023-01-31T00:42:53;98363.32;;;-0.44;94.64
50710;BME280;37033;49.994;21.992;2023-01-31T00:45:42;98369.56;;;-0.39;94.82
50710;BME280;37033;49.994;21.992;2023-01-31T00:48:32;98375.60;;;-0.33;94.85
50710;BME280;37033;49.994;21.992;2023-01-31T00:51:22;98375.46;;;-0.27;95.20
50710;BME280;37033;49.994;21.992;2023-01-31T00:54:12;98375.53;;;-0.22;95.26
50710;BME280;37033;49.994;21.992;2023-01-31T00:57:02;98381.08;;;-0.17;95.28
50710;BME280;37033;49.994;21.992;2023-01-31T00:59:52;98380.69;;;-0.12;95.46
50710;BME280;37033;49.994;21.992;2023-01-31T01:02:42;98380.21;;;-0.08;95.60
50710;BME280;37033;49.994;21.992;2023-01-31T01:05:31;98381.89;;;-0.03;95.50
50710;BME280;37033;49.994;21.992;2023-01-31T01:08:21;98377.42;;;-0.00;95.41
50710;BME280;37033;49.994;21.992;2023-01-31T01:11:12;98384.33;;;0.03;95.38
50710;BME280;37033;49.994;21.992;2023-01-31T01:14:03;98386.81;;;0.06;95.20
50710;BME280;37033;49.994;21.992;2023-01-31T01:16:53;98387.70;;;0.08;95.19
50710;BME280;37033;49.994;21.992;2023-01-31T01:19:45;98393.94;;;0.10;94.96
50710;BME280;37033;49.994;21.992;2023-01-31T01:22:35;98401.27;;;0.11;94.96
50710;BME280;37033;49.994;21.992;2023-01-31T01:25:26;98410.03;;;0.12;95.04
50710;BME280;37033;49.994;21.992;2023-01-31T01:28:15;98407.21;;;0.15;95.07
50710;BME280;37033;49.994;21.992;2023-01-31T01:31:09;98407.42;;;0.17;95.11
50710;BME280;37033;49.994;21.992;2023-01-31T01:34:00;98407.96;;;0.18;95.06
50710;BME280;37033;49.994;21.992;2023-01-31T01:36:50;98404.84;;;0.19;95.03
50710;BME280;37033;49.994;21.992;2023-01-31T01:39:40;98402.86;;;0.19;94.78
50710;BME280;37033;49.994;21.992;2023-01-31T01:42:34;98402.05;;;0.20;94.82
50710;BME280;37033;49.994;21.992;2023-01-31T01:45:24;98415.67;;;0.21;94.80
50710;BME280;37033;49.994;21.992;2023-01-31T01:48:16;98412.95;;;0.21;94.80
50710;BME280;37033;49.994;21.992;2023-01-31T01:51:06;98413.86;;;0.21;94.75
50710;BME280;37033;49.994;21.992;2023-01-31T01:53:59;98420.27;;;0.21;94.73
50710;BME280;37033;49.994;21.992;2023-01-31T01:56:52;98422.49;;;0.22;94.76
50710;BME280;37033;49.994;21.992;2023-01-31T01:59:46;98417.48;;;0.23;94.83
50710;BME280;37033;49.994;21.992;2023-01-31T02:02:37;98417.33;;;0.25;94.87
50710;BME280;37033;49.994;21.992;2023-01-31T02:05:30;98419.70;;;0.25;94.84
50710;BME280;37033;49.994;21.992;2023-01-31T02:08:23;98424.99;;;0.28;94.74
50710;BME280;37033;49.994;21.992;2023-01-31T02:11:22;98418.73;;;0.28;94.69
50710;BME280;37033;49.994;21.992;2023-01-31T02:14:12;98416.11;;;0.29;94.61
50710;BME280;37033;49.994;21.992;2023-01-31T02:17:02;98419.23;;;0.29;94.46
50710;BME280;37033;49.994;21.992;2023-01-31T02:20:02;98414.02;;;0.30;94.42
50710;BME280;37033;49.994;21.992;2023-01-31T02:23:23;98414.23;;;0.31;94.38
50710;BME280;37033;49.994;21.992;2023-01-31T02:29:56;98413.26;;;0.34;94.35
50710;BME280;37033;49.994;21.992;2023-01-31T02:33:03;98420.91;;;0.35;94.35
50710;BME280;37033;49.994;21.992;2023-01-31T02:36:02;98428.68;;;0.36;94.38
50710;BME280;37033;49.994;21.992;2023-01-31T02:39:05;98434.16;;;0.36;94.34
50710;BME280;37033;49.994;21.992;2023-01-31T02:42:06;98440.67;;;0.37;94.37
50710;BME280;37033;49.994;21.992;2023-01-31T02:45:06;98442.52;;;0.38;94.35
50710;BME280;37033;49.994;21.992;2023-01-31T02:48:16;98447.03;;;0.38;94.37
50710;BME280;37033;49.994;21.992;2023-01-31T02:51:10;98446.48;;;0.40;94.28
50710;BME280;37033;49.994;21.992;2023-01-31T02:54:07;98450.88;;;0.41;94.34
50710;BME280;37033;49.994;21.992;2023-01-31T02:56:57;98449.91;;;0.44;94.40
50710;BME280;37033;49.994;21.992;2023-01-31T02:59:47;98446.77;;;0.46;94.27
50710;BME280;37033;49.994;21.992;2023-01-31T03:02:36;98448.60;;;0.47;94.16
50710;BME280;37033;49.994;21.992;2023-01-31T03:05:26;98445.92;;;0.47;94.09
50710;BME280;37033;49.994;21.992;2023-01-31T03:08:17;98449.92;;;0.48;94.01
50710;BME280;37033;49.994;21.992;2023-01-31T03:11:11;98458.44;;;0.50;94.05
50710;BME280;37033;49.994;21.992;2023-01-31T03:14:05;98452.89;;;0.50;93.90
50710;BME280;37033;49.994;21.992;2023-01-31T03:17:03;98463.55;;;0.51;93.93
50710;BME280;37033;49.994;21.992;2023-01-31T03:20:16;98464.62;;;0.51;93.82
50710;BME280;37033;49.994;21.992;2023-01-31T03:23:09;98472.85;;;0.53;93.80
50710;BME280;37033;49.994;21.992;2023-01-31T03:26:03;98475.36;;;0.54;93.82
50710;BME280;37033;49.994;21.992;2023-01-31T03:28:55;98478.62;;;0.54;93.75
50710;BME280;37033;49.994;21.992;2023-01-31T03:31:50;98483.84;;;0.53;93.73
50710;BME280;37033;49.994;21.992;2023-01-31T03:34:41;98492.02;;;0.52;93.71
50710;BME280;37033;49.994;21.992;2023-01-31T03:37:38;98502.30;;;0.50;93.63
50710;BME280;37033;49.994;21.992;2023-01-31T03:40:33;98506.19;;;0.48;93.64
50710;BME280;37033;49.994;21.992;2023-01-31T03:43:30;98510.23;;;0.48;93.67
50710;BME280;37033;49.994;21.992;2023-01-31T03:46:25;98516.38;;;0.47;93.75
50710;BME280;37033;49.994;21.992;2023-01-31T03:49:19;98521.60;;;0.44;93.88
50710;BME280;37033;49.994;21.992;2023-01-31T03:52:11;98524.66;;;0.41;93.88
50710;BME280;37033;49.994;21.992;2023-01-31T03:55:09;98530.39;;;0.36;94.01
50710;BME280;37033;49.994;21.992;2023-01-31T03:58:03;98533.25;;;0.32;94.07
50710;BME280;37033;49.994;21.992;2023-01-31T04:00:56;98537.84;;;0.28;94.19
50710;BME280;37033;49.994;21.992;2023-01-31T04:03:50;98543.65;;;0.26;94.37
50710;BME280;37033;49.994;21.992;2023-01-31T04:06:41;98547.05;;;0.23;94.40
50710;BME280;37033;49.994;21.992;2023-01-31T04:09:31;98551.57;;;0.22;94.29
50710;BME280;37033;49.994;21.992;2023-01-31T04:12:21;98553.69;;;0.20;94.34
50710;BME280;37033;49.994;21.992;2023-01-31T04:15:12;98556.60;;;0.19;94.46
50710;BME280;37033;49.994;21.992;2023-01-31T04:18:01;98560.23;;;0.21;94.59
50710;BME280;37033;49.994;21.992;2023-01-31T04:20:51;98561.27;;;0.22;94.70
50710;BME280;37033;49.994;21.992;2023-01-31T04:23:41;98568.85;;;0.24;94.79
50710;BME280;37033;49.994;21.992;2023-01-31T04:26:31;98566.61;;;0.27;94.87
50710;BME280;37033;49.994;21.992;2023-01-31T04:29:20;98566.59;;;0.29;94.86
50710;BME280;37033;49.994;21.992;2023-01-31T04:32:10;98567.30;;;0.32;95.01
50710;BME280;37033;49.994;21.992;2023-01-31T04:35:00;98569.61;;;0.34;94.96
50710;BME280;37033;49.994;21.992;2023-01-31T04:37:49;98573.95;;;0.36;94.85
50710;BME280;37033;49.994;21.992;2023-01-31T04:40:39;98582.52;;;0.38;94.72
50710;BME280;37033;49.994;21.992;2023-01-31T04:43:29;98585.13;;;0.42;94.82
50710;BME280;37033;49.994;21.992;2023-01-31T04:46:18;98589.09;;;0.43;94.70
50710;BME280;37033;49.994;21.992;2023-01-31T04:49:08;98595.14;;;0.44;94.72
50710;BME280;37033;49.994;21.992;2023-01-31T04:51:58;98594.45;;;0.44;94.67
50710;BME280;37033;49.994;21.992;2023-01-31T04:54:47;98604.73;;;0.45;94.69
50710;BME280;37033;49.994;21.992;2023-01-31T04:57:37;98609.81;;;0.43;94.74
50710;BME280;37033;49.994;21.992;2023-01-31T05:00:27;98601.39;;;0.36;94.74
50710;BME280;37033;49.994;21.992;2023-01-31T05:03:17;98604.44;;;0.32;94.79
50710;BME280;37033;49.994;21.992;2023-01-31T05:06:07;98601.27;;;0.27;94.92
50710;BME280;37033;49.994;21.992;2023-01-31T05:08:57;98601.77;;;0.25;95.11
50710;BME280;37033;49.994;21.992;2023-01-31T05:11:49;98606.77;;;0.23;95.12
50710;BME280;37033;49.994;21.992;2023-01-31T05:14:39;98610.54;;;0.22;95.14
50710;BME280;37033;49.994;21.992;2023-01-31T05:17:28;98611.98;;;0.22;95.21
50710;BME280;37033;49.994;21.992;2023-01-31T05:20:19;98618.67;;;0.22;95.44
50710;BME280;37033;49.994;21.992;2023-01-31T05:23:09;98624.30;;;0.21;95.56
50710;BME280;37033;49.994;21.992;2023-01-31T05:26:00;98630.73;;;0.23;95.62
50710;BME280;37033;49.994;21.992;2023-01-31T05:28:50;98636.66;;;0.25;95.79
50710;BME280;37033;49.994;21.992;2023-01-31T05:31:40;98633.48;;;0.29;95.81
50710;BME280;37033;49.994;21.992;2023-01-31T05:34:30;98640.94;;;0.33;95.81
50710;BME280;37033;49.994;21.992;2023-01-31T05:37:20;98641.30;;;0.36;95.58
50710;BME280;37033;49.994;21.992;2023-01-31T05:40:13;98644.95;;;0.38;95.49
50710;BME280;37033;49.994;21.992;2023-01-31T05:43:04;98653.77;;;0.40;95.50
50710;BME280;37033;49.994;21.992;2023-01-31T05:45:53;98654.04;;;0.43;95.41
50710;BME280;37033;49.994;21.992;2023-01-31T05:48:42;98662.93;;;0.44;95.17
50710;BME280;37033;49.994;21.992;2023-01-31T05:51:32;98665.91;;;0.46;95.12
50710;BME280;37033;49.994;21.992;2023-01-31T05:54:22;98670.67;;;0.46;95.03
50710;BME280;37033;49.994;21.992;2023-01-31T05:57:11;98679.17;;;0.47;94.90
50710;BME280;37033;49.994;21.992;2023-01-31T06:00:04;98680.48;;;0.46;94.84
50710;BME280;37033;49.994;21.992;2023-01-31T06:02:57;98681.35;;;0.48;94.82
50710;BME280;37033;49.994;21.992;2023-01-31T06:05:47;98689.98;;;0.49;94.55
50710;BME280;37033;49.994;21.992;2023-01-31T06:08:37;98694.81;;;0.50;94.53
50710;BME280;37033;49.994;21.992;2023-01-31T06:11:26;98701.94;;;0.50;94.41
50710;BME280;37033;49.994;21.992;2023-01-31T06:14:16;98700.17;;;0.50;94.28
50710;BME280;37033;49.994;21.992;2023-01-31T06:17:05;98704.27;;;0.50;94.24
50710;BME280;37033;49.994;21.992;2023-01-31T06:19:55;98705.19;;;0.50;94.20
50710;BME280;37033;49.994;21.992;2023-01-31T06:22:45;98710.98;;;0.49;94.12
50710;BME280;37033;49.994;21.992;2023-01-31T06:25:35;98718.20;;;0.48;94.01
50710;BME280;37033;49.994;21.992;2023-01-31T06:28:25;98728.20;;;0.48;93.99
50710;BME280;37033;49.994;21.992;2023-01-31T06:31:14;98738.91;;;0.48;93.99
50710;BME280;37033;49.994;21.992;2023-01-31T06:34:03;98738.11;;;0.47;93.89
50710;BME280;37033;49.994;21.992;2023-01-31T06:36:53;98748.20;;;0.48;93.82
50710;BME280;37033;49.994;21.992;2023-01-31T06:39:43;98755.48;;;0.48;93.78
50710;BME280;37033;49.994;21.992;2023-01-31T06:42:32;98756.64;;;0.49;93.72
50710;BME280;37033;49.994;21.992;2023-01-31T06:45:22;98759.38;;;0.50;93.64
50710;BME280;37033;49.994;21.992;2023-01-31T06:48:12;98764.24;;;0.51;93.58
50710;BME280;37033;49.994;21.992;2023-01-31T06:51:02;98766.17;;;0.51;93.55
50710;BME280;37033;49.994;21.992;2023-01-31T06:53:51;98768.15;;;0.52;93.37
50710;BME280;37033;49.994;21.992;2023-01-31T06:56:43;98772.27;;;0.53;93.27
50710;BME280;37033;49.994;21.992;2023-01-31T06:59:33;98781.81;;;0.54;93.17
50710;BME280;37033;49.994;21.992;2023-01-31T07:02:24;98788.42;;;0.55;92.97
50710;BME280;37033;49.994;21.992;2023-01-31T07:05:15;98791.17;;;0.56;92.86
50710;BME280;37033;49.994;21.992;2023-01-31T07:08:05;98793.32;;;0.56;92.68
50710;BME280;37033;49.994;21.992;2023-01-31T07:10:55;98798.48;;;0.57;92.56
50710;BME280;37033;49.994;21.992;2023-01-31T07:13:45;98798.25;;;0.59;92.33
50710;BME280;37033;49.994;21.992;2023-01-31T07:16:35;98806.27;;;0.61;92.32
50710;BME280;37033;49.994;21.992;2023-01-31T07:19:25;98805.49;;;0.63;92.20
50710;BME280;37033;49.994;21.992;2023-01-31T07:22:14;98809.94;;;0.63;92.11
50710;BME280;37033;49.994;21.992;2023-01-31T07:25:05;98823.73;;;0.64;91.97
50710;BME280;37033;49.994;21.992;2023-01-31T07:27:55;98820.77;;;0.64;92.00
50710;BME280;37033;49.994;21.992;2023-01-31T07:30:44;98826.63;;;0.62;92.04
50710;BME280;37033;49.994;21.992;2023-01-31T07:33:35;98829.64;;;0.59;91.92
50710;BME280;37033;49.994;21.992;2023-01-31T07:36:25;98837.45;;;0.55;92.17
50710;BME280;37033;49.994;21.992;2023-01-31T07:39:15;98843.42;;;0.50;92.22
50710;BME280;37033;49.994;21.992;2023-01-31T07:42:05;98846.71;;;0.47;92.49
50710;BME280;37033;49.994;21.992;2023-01-31T07:44:55;98852.59;;;0.46;92.56
50710;BME280;37033;49.994;21.992;2023-01-31T07:47:44;98854.69;;;0.46;92.80
50710;BME280;37033;49.994;21.992;2023-01-31T07:50:34;98862.00;;;0.44;92.92
50710;BME280;37033;49.994;21.992;2023-01-31T07:53:24;98867.91;;;0.44;93.03
50710;BME280;37033;49.994;21.992;2023-01-31T07:56:16;98874.82;;;0.45;93.03
50710;BME280;37033;49.994;21.992;2023-01-31T07:59:06;98881.45;;;0.44;93.04
50710;BME280;37033;49.994;21.992;2023-01-31T08:01:56;98884.95;;;0.45;93.20
50710;BME280;37033;49.994;21.992;2023-01-31T08:05:05;98890.92;;;0.46;93.24
50710;BME280;37033;49.994;21.992;2023-01-31T08:07:55;98889.48;;;0.46;93.24
50710;BME280;37033;49.994;21.992;2023-01-31T08:10:58;98896.84;;;0.45;93.33
50710;BME280;37033;49.994;21.992;2023-01-31T08:13:48;98896.90;;;0.43;93.44
50710;BME280;37033;49.994;21.992;2023-01-31T08:16:37;98898.13;;;0.42;93.53
50710;BME280;37033;49.994;21.992;2023-01-31T08:19:27;98903.34;;;0.45;93.52
50710;BME280;37033;49.994;21.992;2023-01-31T08:22:17;98905.99;;;0.46;93.63
50710;BME280;37033;49.994;21.992;2023-01-31T08:25:08;98911.46;;;0.47;93.64
50710;BME280;37033;49.994;21.992;2023-01-31T08:27:59;98915.11;;;0.46;93.67
50710;BME280;37033;49.994;21.992;2023-01-31T08:30:49;98913.82;;;0.43;93.77
50710;BME280;37033;49.994;21.992;2023-01-31T08:33:39;98917.75;;;0.42;93.84
50710;BME280;37033;49.994;21.992;2023-01-31T08:36:29;98918.93;;;0.39;93.89
50710;BME280;37033;49.994;21.992;2023-01-31T08:39:19;98919.30;;;0.38;93.86
50710;BME280;37033;49.994;21.992;2023-01-31T08:42:09;98923.88;;;0.38;94.06
50710;BME280;37033;49.994;21.992;2023-01-31T08:44:58;98923.26;;;0.39;94.04
50710;BME280;37033;49.994;21.992;2023-01-31T08:47:48;98921.94;;;0.41;94.05
50710;BME280;37033;49.994;21.992;2023-01-31T08:50:41;98926.95;;;0.47;94.10
50710;BME280;37033;49.994;21.992;2023-01-31T08:53:31;98929.62;;;0.55;94.08
50710;BME280;37033;49.994;21.992;2023-01-31T08:56:21;98933.04;;;0.66;94.01
50710;BME280;37033;49.994;21.992;2023-01-31T08:59:14;98932.93;;;0.75;93.84
50710;BME280;37033;49.994;21.992;2023-01-31T09:02:03;98940.70;;;0.82;93.49
50710;BME280;37033;49.994;21.992;2023-01-31T09:04:53;98944.81;;;0.89;93.33
50710;BME280;37033;49.994;21.992;2023-01-31T09:07:43;98947.30;;;0.94;93.02
50710;BME280;37033;49.994;21.992;2023-01-31T09:10:33;98943.28;;;0.97;92.71
50710;BME280;37033;49.994;21.992;2023-01-31T09:13:22;98943.52;;;0.99;92.46
50710;BME280;37033;49.994;21.992;2023-01-31T09:16:13;98948.08;;;1.02;92.22
50710;BME280;37033;49.994;21.992;2023-01-31T09:19:03;98949.45;;;1.03;92.09
50710;BME280;37033;49.994;21.992;2023-01-31T09:21:53;98947.30;;;1.06;91.93
50710;BME280;37033;49.994;21.992;2023-01-31T09:24:43;98947.71;;;1.07;91.52
50710;BME280;37033;49.994;21.992;2023-01-31T09:27:36;98953.13;;;1.09;91.28
50710;BME280;37033;49.994;21.992;2023-01-31T09:30:26;98954.99;;;1.10;91.21
50710;BME280;37033;49.994;21.992;2023-01-31T09:33:16;98962.52;;;1.10;90.77
50710;BME280;37033;49.994;21.992;2023-01-31T09:36:09;98964.52;;;1.11;90.82
50710;BME280;37033;49.994;21.992;2023-01-31T09:38:59;98970.95;;;1.11;90.77
50710;BME280;37033;49.994;21.992;2023-01-31T09:41:51;98978.14;;;1.11;90.53
50710;BME280;37033;49.994;21.992;2023-01-31T09:44:43;98980.39;;;1.10;90.33
50710;BME280;37033;49.994;21.992;2023-01-31T09:47:37;98986.38;;;1.06;90.13
50710;BME280;37033;49.994;21.992;2023-01-31T09:50:34;98984.79;;;1.05;90.26
50710;BME280;37033;49.994;21.992;2023-01-31T09:53:29;98978.48;;;1.04;90.03
50710;BME280;37033;49.994;21.992;2023-01-31T09:56:29;98982.12;;;1.05;89.77
50710;BME280;37033;49.994;21.992;2023-01-31T09:59:22;98977.76;;;1.05;89.64
50710;BME280;37033;49.994;21.992;2023-01-31T10:02:34;98974.92;;;1.08;89.80
50710;BME280;37033;49.994;21.992;2023-01-31T10:05:35;98978.19;;;1.12;89.52
50710;BME280;37033;49.994;21.992;2023-01-31T10:08:37;98974.19;;;1.14;89.55
50710;BME280;37033;49.994;21.992;2023-01-31T10:11:33;98970.54;;;1.17;89.41
50710;BME280;37033;49.994;21.992;2023-01-31T10:14:28;98971.96;;;1.20;89.36
50710;BME280;37033;49.994;21.992;2023-01-31T10:17:24;98973.61;;;1.24;89.22
50710;BME280;37033;49.994;21.992;2023-01-31T10:20:18;98974.16;;;1.26;88.92
50710;BME280;37033;49.994;21.992;2023-01-31T10:23:14;98970.59;;;1.27;88.66
50710;BME280;37033;49.994;21.992;2023-01-31T10:26:03;98967.84;;;1.28;88.28
50710;BME280;37033;49.994;21.992;2023-01-31T10:28:59;98972.67;;;1.27;88.07
50710;BME280;37033;49.994;21.992;2023-01-31T10:31:54;98977.59;;;1.29;87.83
50710;BME280;37033;49.994;21.992;2023-01-31T10:34:48;98975.04;;;1.31;87.67
50710;BME280;37033;49.994;21.992;2023-01-31T10:37:41;98972.52;;;1.35;87.51
50710;BME280;37033;49.994;21.992;2023-01-31T10:40:34;98964.35;;;1.38;87.25
50710;BME280;37033;49.994;21.992;2023-01-31T10:43:32;98967.20;;;1.48;87.66
50710;BME280;37033;49.994;21.992;2023-01-31T10:46:25;98964.84;;;1.52;86.82
50710;BME280;37033;49.994;21.992;2023-01-31T10:49:15;98961.44;;;1.50;86.55
50710;BME280;37033;49.994;21.992;2023-01-31T10:52:16;98965.48;;;1.49;86.43
50710;BME280;37033;49.994;21.992;2023-01-31T10:55:24;98964.73;;;1.49;86.63
50710;BME280;37033;49.994;21.992;2023-01-31T10:58:20;98960.72;;;1.52;86.83
50710;BME280;37033;49.994;21.992;2023-01-31T11:01:11;98961.68;;;1.53;86.38
50710;BME280;37033;49.994;21.992;2023-01-31T11:04:04;98957.42;;;1.52;86.11
50710;BME280;37033;49.994;21.992;2023-01-31T11:07:03;98963.10;;;1.51;86.00
50710;BME280;37033;49.994;21.992;2023-01-31T11:09:54;98965.81;;;1.50;85.77
50710;BME280;37033;49.994;21.992;2023-01-31T11:12:54;98970.36;;;1.50;85.93
50710;BME280;37033;49.994;21.992;2023-01-31T11:15:47;98974.77;;;1.52;85.77
50710;BME280;37033;49.994;21.992;2023-01-31T11:18:45;98976.10;;;1.53;85.79
50710;BME280;37033;49.994;21.992;2023-01-31T11:21:36;98974.92;;;1.56;85.71
50710;BME280;37033;49.994;21.992;2023-01-31T11:24:28;98975.53;;;1.59;85.65
50710;BME280;37033;49.994;21.992;2023-01-31T11:27:25;98976.76;;;1.62;85.37
50710;BME280;37033;49.994;21.992;2023-01-31T11:30:24;98973.44;;;1.64;85.17
50710;BME280;37033;49.994;21.992;2023-01-31T11:33:39;98969.48;;;1.67;84.97
50710;BME280;37033;49.994;21.992;2023-01-31T11:36:41;98968.77;;;1.70;85.06
50710;BME280;37033;49.994;21.992;2023-01-31T11:39:35;98968.24;;;1.75;85.02
50710;BME280;37033;49.994;21.992;2023-01-31T11:42:26;98960.27;;;1.79;84.65
50710;BME280;37033;49.994;21.992;2023-01-31T11:45:20;98962.42;;;1.82;84.37
50710;BME280;37033;49.994;21.992;2023-01-31T11:48:18;98959.45;;;1.85;84.29
50710;BME280;37033;49.994;21.992;2023-01-31T11:51:22;98960.46;;;1.88;84.29
50710;BME280;37033;49.994;21.992;2023-01-31T11:54:19;98965.86;;;1.89;84.04
50710;BME280;37033;49.994;21.992;2023-01-31T11:57:16;98960.41;;;1.87;83.98
50710;BME280;37033;49.994;21.992;2023-01-31T12:00:21;98971.88;;;1.82;83.97
50710;BME280;37033;49.994;21.992;2023-01-31T12:03:17;98973.98;;;1.76;84.10
50710;BME280;37033;49.994;21.992;2023-01-31T12:06:08;98973.14;;;1.75;84.36
50710;BME280;37033;49.994;21.992;2023-01-31T12:09:00;98974.69;;;1.72;84.16
50710;BME280;37033;49.994;21.992;2023-01-31T12:11:53;98976.51;;;1.67;84.15
50710;BME280;37033;49.994;21.992;2023-01-31T12:14:47;98982.58;;;1.63;84.12
50710;BME280;37033;49.994;21.992;2023-01-31T12:17:44;98980.28;;;1.60;83.69
50710;BME280;37033;49.994;21.992;2023-01-31T12:20:40;98978.88;;;1.55;83.53
50710;BME280;37033;49.994;21.992;2023-01-31T12:23:41;98982.19;;;1.51;83.11
50710;BME280;37033;49.994;21.992;2023-01-31T12:26:41;98984.94;;;1.50;83.37
50710;BME280;37033;49.994;21.992;2023-01-31T12:33:17;98982.52;;;1.49;83.44
50710;BME280;37033;49.994;21.992;2023-01-31T12:36:23;98984.42;;;1.47;83.09
50710;BME280;37033;49.994;21.992;2023-01-31T12:39:28;98986.03;;;1.44;82.83
50710;BME280;37033;49.994;21.992;2023-01-31T12:42:37;98985.31;;;1.42;82.96
50710;BME280;37033;49.994;21.992;2023-01-31T12:45:49;98992.45;;;1.42;82.75
50710;BME280;37033;49.994;21.992;2023-01-31T12:49:06;98991.64;;;1.40;82.49
50710;BME280;37033;49.994;21.992;2023-01-31T12:52:06;98991.52;;;1.38;82.22
50710;BME280;37033;49.994;21.992;2023-01-31T12:55:14;98998.98;;;1.35;82.27
50710;BME280;37033;49.994;21.992;2023-01-31T12:58:20;98998.17;;;1.33;81.94
50710;BME280;37033;49.994;21.992;2023-01-31T13:01:14;98999.55;;;1.31;82.24
50710;BME280;37033;49.994;21.992;2023-01-31T13:04:25;99002.86;;;1.28;82.21
50710;BME280;37033;49.994;21.992;2023-01-31T13:07:23;99001.04;;;1.26;82.01
50710;BME280;37033;49.994;21.992;2023-01-31T13:10:27;99007.35;;;1.24;82.18
50710;BME280;37033;49.994;21.992;2023-01-31T13:13:23;99005.73;;;1.23;82.41
50710;BME280;37033;49.994;21.992;2023-01-31T13:16:17;99002.57;;;1.24;82.14
50710;BME280;37033;49.994;21.992;2023-01-31T13:19:14;99002.45;;;1.23;82.21
50710;BME280;37033;49.994;21.992;2023-01-31T13:22:10;98999.37;;;1.24;82.32
50710;BME280;37033;49.994;21.992;2023-01-31T13:25:14;98998.48;;;1.25;82.26
50710;BME280;37033;49.994;21.992;2023-01-31T13:28:10;99000.61;;;1.25;82.21
50710;BME280;37033;49.994;21.992;2023-01-31T13:31:02;98996.86;;;1.24;82.36
50710;BME280;37033;49.994;21.992;2023-01-31T13:33:59;98994.09;;;1.23;82.46
50710;BME280;37033;49.994;21.992;2023-01-31T13:36:54;98991.72;;;1.22;82.23
50710;BME280;37033;49.994;21.992;2023-01-31T13:39:48;98988.19;;;1.19;82.04
50710;BME280;37033;49.994;21.992;2023-01-31T13:42:39;98988.45;;;1.17;82.13
50710;BME280;37033;49.994;21.992;2023-01-31T13:45:32;98986.36;;;1.13;82.15
50710;BME280;37033;49.994;21.992;2023-01-31T13:48:24;98990.23;;;1.13;82.21
50710;BME280;37033;49.994;21.992;2023-01-31T13:51:17;98990.52;;;1.10;82.17
50710;BME280;37033;49.994;21.992;2023-01-31T13:54:15;98990.77;;;1.10;82.01
50710;BME280;37033;49.994;21.992;2023-01-31T13:57:16;98990.89;;;1.09;81.89
50710;BME280;37033;49.994;21.992;2023-01-31T14:00:28;98991.70;;;1.07;81.70
50710;BME280;37033;49.994;21.992;2023-01-31T14:03:22;98990.07;;;1.05;81.61
50710;BME280;37033;49.994;21.992;2023-01-31T14:06:11;98993.52;;;1.05;81.62
50710;BME280;37033;49.994;21.992;2023-01-31T14:09:01;98992.88;;;1.06;80.98
50710;BME280;37033;49.994;21.992;2023-01-31T14:11:51;98993.95;;;1.06;80.85
50710;BME280;37033;49.994;21.992;2023-01-31T14:14:43;98996.95;;;1.06;80.66
50710;BME280;37033;49.994;21.992;2023-01-31T14:17:57;98996.25;;;1.06;80.64
50710;BME280;37033;49.994;21.992;2023-01-31T14:20:48;98997.02;;;1.05;80.35
50710;BME280;37033;49.994;21.992;2023-01-31T14:23:45;98994.89;;;1.05;80.34
50710;BME280;37033;49.994;21.992;2023-01-31T14:26:51;98991.13;;;1.04;79.76
50710;BME280;37033;49.994;21.992;2023-01-31T14:29:44;98991.36;;;1.03;79.41
50710;BME280;37033;49.994;21.992;2023-01-31T14:32:37;98989.45;;;1.02;79.63
50710;BME280;37033;49.994;21.992;2023-01-31T14:35:38;98984.77;;;1.02;79.62
50710;BME280;37033;49.994;21.992;2023-01-31T14:38:45;98988.59;;;1.01;80.00
50710;BME280;37033;49.994;21.992;2023-01-31T14:41:53;98986.70;;;1.02;79.62
50710;BME280;37033;49.994;21.992;2023-01-31T14:44:59;98989.88;;;1.03;79.48
50710;BME280;37033;49.994;21.992;2023-01-31T14:48:08;98998.56;;;1.02;79.26
50710;BME280;37033;49.994;21.992;2023-01-31T14:51:11;98996.00;;;1.01;79.46
50710;BME280;37033;49.994;21.992;2023-01-31T14:57:20;99001.36;;;0.99;79.15
50710;BME280;37033;49.994;21.992;2023-01-31T15:00:20;99005.15;;;0.98;79.17
50710;BME280;37033;49.994;21.992;2023-01-31T15:03:18;99002.46;;;0.97;79.23
50710;BME280;37033;49.994;21.992;2023-01-31T15:06:11;99003.76;;;0.95;79.24
50710;BME280;37033;49.994;21.992;2023-01-31T15:09:34;99004.65;;;0.94;79.26
50710;BME280;37033;49.994;21.992;2023-01-31T15:12:55;98997.06;;;0.90;79.32
50710;BME280;37033;49.994;21.992;2023-01-31T15:15:49;99005.87;;;0.88;78.80
50710;BME280;37033;49.994;21.992;2023-01-31T15:18:43;99005.89;;;0.87;78.83
50710;BME280;37033;49.994;21.992;2023-01-31T15:21:36;99006.89;;;0.86;78.81
50710;BME280;37033;49.994;21.992;2023-01-31T15:24:32;99003.50;;;0.83;79.11
50710;BME280;37033;49.994;21.992;2023-01-31T15:27:22;99003.69;;;0.81;78.82
50710;BME280;37033;49.994;21.992;2023-01-31T15:30:17;99006.02;;;0.78;78.69
50710;BME280;37033;49.994;21.992;2023-01-31T15:33:14;99001.23;;;0.75;78.55